sensor_id;sensor_type;location;lat;lon;timestamp;pressure;altitude;pressure_sealevel;temperature;humidity
18678;BME280;9469;51.114;13.914;2023-09-07T00:01:17;99486.97;;;17.25;100.00
18678;BME280;9469;51.114;13.914;2023-09-07T00:06:24;99494.84;;;17.30;100.00
18678;BME280;9469;51.114;13.914;2023-09-07T00:11:29;99493.63;;;17.19;100.00
18678;BME280;9469;51.114;13.914;2023-09-07T00:16:37;99492.59;;;17.11;100.00
18678;BME280;9469;51.114;13.914;2023-09-07T00:21:43;99500.03;;;17.06;100.00
18678;BME280;9469;51.114;13.914;2023-09-07T00:26:48;99503.09;;;16.87;100.00
18678;BME280;9469;51.114;13.914;2023-09-07T00:32:00;99497.97;;;16.65;100.00
18678;BME280;9469;51.114;13.914;2023-09-07T00:37:05;99512.53;;;16.64;100.00
18678;BME280;9469;51.114;13.914;2023-09-07T00:42:11;99511.41;;;16.57;100.00
18678;BME280;9469;51.114;13.914;2023-09-07T00:47:19;99504.91;;;16.49;100.00
18678;BME280;9469;51.114;13.914;2023-09-07T00:52:25;99501.78;;;16.56;100.00
18678;BME280;9469;51.114;13.914;2023-09-07T00:57:30;99505.56;;;16.63;100.00
18678;BME280;9469;51.114;13.914;2023-09-07T01:02:40;99505.72;;;16.58;100.00
18678;BME280;9469;51.114;13.914;2023-09-07T01:07:50;99499.59;;;16.58;100.00
18678;BME280;9469;51.114;13.914;2023-09-07T01:12:59;99493.91;;;16.33;100.00
18678;BME280;9469;51.114;13.914;2023-09-07T01:18:07;99491.34;;;16.45;100.00
18678;BME280;9469;51.114;13.914;2023-09-07T01:23:38;99493.78;;;16.21;100.00
18678;BME280;9469;51.114;13.914;2023-09-07T01:28:45;99490.44;;;16.16;100.00
18678;BME280;9469;51.114;13.914;2023-09-07T01:33:50;99488.22;;;15.92;100.00
18678;BME280;9469;51.114;13.914;2023-09-07T01:39:00;99490.13;;;15.83;100.00
18678;BME280;9469;51.114;13.914;2023-09-07T01:44:06;99487.63;;;15.87;100.00
18678;BME280;9469;51.114;13.914;2023-09-07T01:49:11;99496.63;;;15.73;100.00
18678;BME280;9469;51.114;13.914;2023-09-07T01:54:18;99498.78;;;15.63;100.00
18678;BME280;9469;51.114;13.914;2023-09-07T01:59:29;99496.25;;;15.49;100.00
18678;BME280;9469;51.114;13.914;2023-09-07T02:04:34;99489.81;;;15.59;100.00
18678;BME280;9469;51.114;13.914;2023-09-07T02:09:42;99486.97;;;15.47;100.00
18678;BME280;9469;51.114;13.914;2023-09-07T02:14:49;99488.53;;;15.65;100.00
18678;BME280;9469;51.114;13.914;2023-09-07T02:19:55;99491.63;;;15.33;100.00
18678;BME280;9469;51.114;13.914;2023-09-07T02:25:04;99488.75;;;15.21;100.00
18678;BME280;9469;51.114;13.914;2023-09-07T02:30:10;99483.69;;;15.19;100.00
18678;BME280;9469;51.114;13.914;2023-09-07T02:35:17;99488.28;;;15.19;100.00
18678;BME280;9469;51.114;13.914;2023-09-07T02:40:25;99487.94;;;15.12;100.00
18678;BME280;9469;51.114;13.914;2023-09-07T02:45:31;99484.75;;;15.01;100.00
18678;BME280;9469;51.114;13.914;2023-09-07T02:50:38;99490.44;;;15.08;100.00
18678;BME280;9469;51.114;13.914;2023-09-07T02:55:48;99497.22;;;15.05;100.00
18678;BME280;9469;51.114;13.914;2023-09-07T03:00:54;99495.63;;;15.04;100.00
18678;BME280;9469;51.114;13.914;2023-09-07T03:06:07;99494.31;;;14.93;100.00
18678;BME280;9469;51.114;13.914;2023-09-07T03:11:17;99495.47;;;15.01;100.00
18678;BME280;9469;51.114;13.914;2023-09-07T03:16:24;99494.31;;;14.93;100.00
18678;BME280;9469;51.114;13.914;2023-09-07T03:21:29;99490.94;;;14.79;100.00
18678;BME280;9469;51.114;13.914;2023-09-07T03:26:37;99493.09;;;14.69;100.00
18678;BME280;9469;51.114;13.914;2023-09-07T03:31:42;99482.97;;;14.57;100.00
18678;BME280;9469;51.114;13.914;2023-09-07T03:36:48;99492.84;;;14.48;100.00
18678;BME280;9469;51.114;13.914;2023-09-07T03:41:58;99486.59;;;14.61;100.00
18678;BME280;9469;51.114;13.914;2023-09-07T03:47:03;99494.94;;;14.60;100.00
18678;BME280;9469;51.114;13.914;2023-09-07T03:52:09;99504.19;;;14.76;100.00
18678;BME280;9469;51.114;13.914;2023-09-07T03:57:17;99506.66;;;14.72;100.00
18678;BME280;9469;51.114;13.914;2023-09-07T04:02:23;99498.22;;;14.57;100.00
18678;BME280;9469;51.114;13.914;2023-09-07T04:07:28;99502.81;;;14.34;100.00
18678;BME280;9469;51.114;13.914;2023-09-07T04:12:36;99503.84;;;14.24;100.00
18678;BME280;9469;51.114;13.914;2023-09-07T04:17:41;99501.72;;;14.35;100.00
18678;BME280;9469;51.114;13.914;2023-09-07T04:22:47;99505.63;;;14.51;100.00
18678;BME280;9469;51.114;13.914;2023-09-07T04:27:55;99508.66;;;14.36;100.00
18678;BME280;9469;51.114;13.914;2023-09-07T04:33:04;99503.53;;;14.48;100.00
18678;BME280;9469;51.114;13.914;2023-09-07T04:38:11;99511.97;;;14.64;100.00
18678;BME280;9469;51.114;13.914;2023-09-07T04:43:19;99516.78;;;14.75;100.00
18678;BME280;9469;51.114;13.914;2023-09-07T04:48:24;99501.03;;;15.87;100.00
18678;BME280;9469;51.114;13.914;2023-09-07T04:53:34;99515.41;;;17.64;100.00
18678;BME280;9469;51.114;13.914;2023-09-07T04:58:42;99512.41;;;18.60;97.46
18678;BME280;9469;51.114;13.914;2023-09-07T05:03:48;99517.78;;;19.29;95.85
18678;BME280;9469;51.114;13.914;2023-09-07T05:08:54;99515.09;;;19.29;93.62
18678;BME280;9469;51.114;13.914;2023-09-07T05:14:02;99514.59;;;19.27;93.09
18678;BME280;9469;51.114;13.914;2023-09-07T05:19:10;99515.97;;;19.57;92.21
18678;BME280;9469;51.114;13.914;2023-09-07T05:24:19;99521.50;;;19.37;92.15
18678;BME280;9469;51.114;13.914;2023-09-07T05:29:27;99512.75;;;20.90;84.65
18678;BME280;9469;51.114;13.914;2023-09-07T05:34:32;99521.31;;;22.66;79.89
18678;BME280;9469;51.114;13.914;2023-09-07T05:39:37;99530.66;;;23.63;75.12
18678;BME280;9469;51.114;13.914;2023-09-07T05:44:47;99530.94;;;24.10;72.72
18678;BME280;9469;51.114;13.914;2023-09-07T05:49:58;99520.63;;;25.00;69.38
18678;BME280;9469;51.114;13.914;2023-09-07T05:55:04;99535.50;;;26.32;67.30
18678;BME280;9469;51.114;13.914;2023-09-07T06:00:13;99528.84;;;25.54;68.86
18678;BME280;9469;51.114;13.914;2023-09-07T06:05:20;99539.66;;;22.95;76.36
18678;BME280;9469;51.114;13.914;2023-09-07T06:10:28;99547.13;;;22.02;79.15
18678;BME280;9469;51.114;13.914;2023-09-07T06:15:39;99545.56;;;22.40;79.00
18678;BME280;9469;51.114;13.914;2023-09-07T06:20:45;99551.88;;;22.86;79.00
18678;BME280;9469;51.114;13.914;2023-09-07T06:25:50;99547.13;;;22.02;81.09
18678;BME280;9469;51.114;13.914;2023-09-07T06:30:58;99543.50;;;22.52;79.86
18678;BME280;9469;51.114;13.914;2023-09-07T06:36:07;99543.56;;;22.75;78.70
18678;BME280;9469;51.114;13.914;2023-09-07T06:41:13;99544.06;;;23.78;76.73
18678;BME280;9469;51.114;13.914;2023-09-07T06:46:24;99555.31;;;23.77;76.79
18678;BME280;9469;51.114;13.914;2023-09-07T06:51:31;99554.47;;;24.02;73.80
18678;BME280;9469;51.114;13.914;2023-09-07T06:56:38;99553.47;;;25.65;69.84
18678;BME280;9469;51.114;13.914;2023-09-07T07:01:47;99556.69;;;26.81;68.69
18678;BME280;9469;51.114;13.914;2023-09-07T07:06:54;99554.69;;;27.98;65.83
18678;BME280;9469;51.114;13.914;2023-09-07T07:12:00;99564.53;;;27.18;65.54
18678;BME280;9469;51.114;13.914;2023-09-07T07:17:10;99559.75;;;26.62;66.07
18678;BME280;9469;51.114;13.914;2023-09-07T07:22:16;99550.81;;;28.85;62.51
18678;BME280;9469;51.114;13.914;2023-09-07T07:27:24;99558.28;;;27.59;63.18
18678;BME280;9469;51.114;13.914;2023-09-07T07:32:34;99556.56;;;28.29;62.69
18678;BME280;9469;51.114;13.914;2023-09-07T07:37:40;99563.16;;;28.42;62.70
18678;BME280;9469;51.114;13.914;2023-09-07T07:42:48;99558.66;;;27.76;64.07
18678;BME280;9469;51.114;13.914;2023-09-07T07:47:59;99560.19;;;27.87;63.12
18678;BME280;9469;51.114;13.914;2023-09-07T07:53:04;99558.41;;;26.13;67.24
18678;BME280;9469;51.114;13.914;2023-09-07T07:58:11;99560.63;;;27.33;63.69
18678;BME280;9469;51.114;13.914;2023-09-07T08:03:20;99558.94;;;26.44;65.09
18678;BME280;9469;51.114;13.914;2023-09-07T08:08:28;99560.56;;;25.83;65.97
18678;BME280;9469;51.114;13.914;2023-09-07T08:13:34;99553.91;;;26.63;65.10
18678;BME280;9469;51.114;13.914;2023-09-07T08:18:45;99561.38;;;26.80;63.55
18678;BME280;9469;51.114;13.914;2023-09-07T08:23:52;99551.47;;;28.27;60.79
18678;BME280;9469;51.114;13.914;2023-09-07T08:28:58;99548.91;;;27.82;62.33
18678;BME280;9469;51.114;13.914;2023-09-07T08:34:10;99555.16;;;27.08;64.68
18678;BME280;9469;51.114;13.914;2023-09-07T08:39:16;99539.44;;;28.11;62.26
18678;BME280;9469;51.114;13.914;2023-09-07T08:44:22;99540.72;;;26.90;64.05
18678;BME280;9469;51.114;13.914;2023-09-07T08:49:32;99545.72;;;26.53;64.27
18678;BME280;9469;51.114;13.914;2023-09-07T08:54:38;99548.94;;;27.22;63.86
18678;BME280;9469;51.114;13.914;2023-09-07T08:59:43;99549.69;;;27.64;62.04
18678;BME280;9469;51.114;13.914;2023-09-07T09:04:53;99539.69;;;28.45;61.61
18678;BME280;9469;51.114;13.914;2023-09-07T09:10:07;99535.25;;;27.08;62.54
18678;BME280;9469;51.114;13.914;2023-09-07T09:15:31;99551.94;;;28.12;60.30
18678;BME280;9469;51.114;13.914;2023-09-07T09:20:48;99559.09;;;27.49;61.39
18678;BME280;9469;51.114;13.914;2023-09-07T09:25:54;99560.56;;;26.73;63.29
18678;BME280;9469;51.114;13.914;2023-09-07T09:31:00;99553.84;;;28.22;60.30
18678;BME280;9469;51.114;13.914;2023-09-07T09:36:08;99566.09;;;27.01;61.97
18678;BME280;9469;51.114;13.914;2023-09-07T09:41:14;99546.25;;;28.54;59.01
18678;BME280;9469;51.114;13.914;2023-09-07T09:46:22;99548.19;;;28.57;59.28
18678;BME280;9469;51.114;13.914;2023-09-07T09:51:34;99543.34;;;27.96;61.10
18678;BME280;9469;51.114;13.914;2023-09-07T09:56:43;99538.53;;;28.38;59.60
18678;BME280;9469;51.114;13.914;2023-09-07T10:01:49;99525.47;;;29.26;58.76
18678;BME280;9469;51.114;13.914;2023-09-07T10:07:01;99533.06;;;28.35;58.90
18678;BME280;9469;51.114;13.914;2023-09-07T10:12:13;99539.09;;;27.88;59.71
18678;BME280;9469;51.114;13.914;2023-09-07T10:17:22;99532.84;;;28.77;60.10
18678;BME280;9469;51.114;13.914;2023-09-07T10:22:30;99540.22;;;28.08;58.62
18678;BME280;9469;51.114;13.914;2023-09-07T10:27:39;99517.34;;;28.50;59.11
18678;BME280;9469;51.114;13.914;2023-09-07T10:32:44;99525.13;;;29.13;59.23
18678;BME280;9469;51.114;13.914;2023-09-07T10:37:52;99509.13;;;28.50;59.53
18678;BME280;9469;51.114;13.914;2023-09-07T10:43:22;99517.06;;;28.95;59.03
18678;BME280;9469;51.114;13.914;2023-09-07T10:48:29;99507.09;;;28.71;60.57
18678;BME280;9469;51.114;13.914;2023-09-07T10:53:38;99501.16;;;29.28;59.34
18678;BME280;9469;51.114;13.914;2023-09-07T10:58:43;99499.69;;;29.20;59.65
18678;BME280;9469;51.114;13.914;2023-09-07T11:03:48;99498.63;;;28.99;61.25
18678;BME280;9469;51.114;13.914;2023-09-07T11:09:00;99476.91;;;29.63;60.12
18678;BME280;9469;51.114;13.914;2023-09-07T11:14:07;99487.28;;;29.01;60.66
18678;BME280;9469;51.114;13.914;2023-09-07T11:19:13;99484.06;;;28.65;61.77
18678;BME280;9469;51.114;13.914;2023-09-07T11:24:24;99489.72;;;29.40;59.35
18678;BME280;9469;51.114;13.914;2023-09-07T11:29:31;99483.22;;;29.23;59.30
18678;BME280;9469;51.114;13.914;2023-09-07T11:34:47;99479.28;;;29.61;59.54
18678;BME280;9469;51.114;13.914;2023-09-07T11:39:57;99489.41;;;29.68;58.66
18678;BME280;9469;51.114;13.914;2023-09-07T11:45:02;99480.09;;;29.96;58.87
18678;BME280;9469;51.114;13.914;2023-09-07T11:50:08;99475.34;;;30.00;59.23
18678;BME280;9469;51.114;13.914;2023-09-07T11:55:16;99483.09;;;29.34;57.07
18678;BME280;9469;51.114;13.914;2023-09-07T12:00:23;99477.41;;;29.55;57.12
18678;BME280;9469;51.114;13.914;2023-09-07T12:05:31;99471.44;;;29.97;56.66
18678;BME280;9469;51.114;13.914;2023-09-07T12:10:41;99473.56;;;29.49;56.09
18678;BME280;9469;51.114;13.914;2023-09-07T12:15:46;99468.19;;;29.72;55.89
18678;BME280;9469;51.114;13.914;2023-09-07T12:20:51;99457.91;;;29.46;57.46
18678;BME280;9469;51.114;13.914;2023-09-07T12:26:01;99446.09;;;29.11;56.89
18678;BME280;9469;51.114;13.914;2023-09-07T12:31:09;99443.97;;;29.33;57.33
18678;BME280;9469;51.114;13.914;2023-09-07T12:36:16;99447.91;;;29.66;57.99
18678;BME280;9469;51.114;13.914;2023-09-07T12:41:29;99440.63;;;29.86;57.17
18678;BME280;9469;51.114;13.914;2023-09-07T12:46:34;99437.28;;;28.93;58.60
18678;BME280;9469;51.114;13.914;2023-09-07T12:51:40;99433.88;;;29.23;59.53
18678;BME280;9469;51.114;13.914;2023-09-07T12:56:49;99435.34;;;28.90;58.71
18678;BME280;9469;51.114;13.914;2023-09-07T13:01:58;99414.13;;;29.76;59.09
18678;BME280;9469;51.114;13.914;2023-09-07T13:07:06;99431.44;;;28.91;59.20
18678;BME280;9469;51.114;13.914;2023-09-07T13:12:14;99415.63;;;29.47;58.70
18678;BME280;9469;51.114;13.914;2023-09-07T13:17:19;99415.06;;;28.84;59.40
18678;BME280;9469;51.114;13.914;2023-09-07T13:22:26;99423.03;;;29.09;58.10
18678;BME280;9469;51.114;13.914;2023-09-07T13:27:36;99419.34;;;29.30;58.41
18678;BME280;9469;51.114;13.914;2023-09-07T13:32:41;99412.78;;;29.20;58.02
18678;BME280;9469;51.114;13.914;2023-09-07T13:37:49;99403.16;;;29.42;59.30
18678;BME280;9469;51.114;13.914;2023-09-07T13:42:57;99400.44;;;29.01;61.98
18678;BME280;9469;51.114;13.914;2023-09-07T13:48:03;99398.72;;;29.15;61.47
18678;BME280;9469;51.114;13.914;2023-09-07T13:53:09;99401.72;;;28.90;58.87
18678;BME280;9469;51.114;13.914;2023-09-07T13:58:17;99400.75;;;29.10;58.25
18678;BME280;9469;51.114;13.914;2023-09-07T14:03:22;99385.34;;;28.83;58.37
18678;BME280;9469;51.114;13.914;2023-09-07T14:08:29;99377.34;;;28.58;59.48
18678;BME280;9469;51.114;13.914;2023-09-07T14:13:39;99393.88;;;28.88;60.08
18678;BME280;9469;51.114;13.914;2023-09-07T14:18:44;99403.34;;;28.80;58.72
18678;BME280;9469;51.114;13.914;2023-09-07T14:23:50;99384.31;;;28.70;60.25
18678;BME280;9469;51.114;13.914;2023-09-07T14:29:00;99392.66;;;28.93;60.49
18678;BME280;9469;51.114;13.914;2023-09-07T14:34:07;99396.72;;;28.78;60.12
18678;BME280;9469;51.114;13.914;2023-09-07T14:39:12;99396.22;;;28.42;61.66
18678;BME280;9469;51.114;13.914;2023-09-07T14:44:26;99396.59;;;28.44;61.61
18678;BME280;9469;51.114;13.914;2023-09-07T14:49:31;99395.72;;;28.54;61.37
18678;BME280;9469;51.114;13.914;2023-09-07T14:54:36;99388.91;;;28.25;61.64
18678;BME280;9469;51.114;13.914;2023-09-07T14:59:46;99386.81;;;28.43;62.42
18678;BME280;9469;51.114;13.914;2023-09-07T15:04:51;99385.31;;;28.35;62.76
18678;BME280;9469;51.114;13.914;2023-09-07T15:09:56;99382.72;;;28.14;63.52
18678;BME280;9469;51.114;13.914;2023-09-07T15:15:05;99374.63;;;28.00;62.11
18678;BME280;9469;51.114;13.914;2023-09-07T15:20:11;99381.31;;;27.85;62.04
18678;BME280;9469;51.114;13.914;2023-09-07T15:25:16;99378.13;;;27.97;62.00
18678;BME280;9469;51.114;13.914;2023-09-07T15:30:24;99367.63;;;27.85;62.26
18678;BME280;9469;51.114;13.914;2023-09-07T15:35:30;99377.88;;;27.70;61.94
18678;BME280;9469;51.114;13.914;2023-09-07T15:40:35;99383.81;;;27.54;61.45
18678;BME280;9469;51.114;13.914;2023-09-07T15:45:43;99379.50;;;27.53;61.42
18678;BME280;9469;51.114;13.914;2023-09-07T15:50:49;99383.03;;;27.54;61.67
18678;BME280;9469;51.114;13.914;2023-09-07T15:55:54;99383.84;;;27.40;62.26
18678;BME280;9469;51.114;13.914;2023-09-07T16:01:02;99381.53;;;27.32;63.56
18678;BME280;9469;51.114;13.914;2023-09-07T16:06:07;99376.09;;;27.18;65.27
18678;BME280;9469;51.114;13.914;2023-09-07T16:11:12;99387.38;;;27.16;66.29
18678;BME280;9469;51.114;13.914;2023-09-07T16:16:20;99376.53;;;26.95;66.54
18678;BME280;9469;51.114;13.914;2023-09-07T16:21:27;99381.97;;;27.06;67.32
18678;BME280;9469;51.114;13.914;2023-09-07T16:26:33;99375.78;;;26.84;68.44
18678;BME280;9469;51.114;13.914;2023-09-07T16:31:41;99365.63;;;26.74;69.06
18678;BME280;9469;51.114;13.914;2023-09-07T16:36:46;99371.47;;;26.51;69.68
18678;BME280;9469;51.114;13.914;2023-09-07T16:41:53;99372.63;;;26.32;69.95
18678;BME280;9469;51.114;13.914;2023-09-07T16:47:01;99385.88;;;26.38;69.87
18678;BME280;9469;51.114;13.914;2023-09-07T16:52:06;99386.63;;;26.24;71.12
18678;BME280;9469;51.114;13.914;2023-09-07T16:57:11;99383.06;;;25.95;71.70
18678;BME280;9469;51.114;13.914;2023-09-07T17:02:19;99384.13;;;25.66;71.89
18678;BME280;9469;51.114;13.914;2023-09-07T17:07:24;99373.22;;;25.59;72.13
18678;BME280;9469;51.114;13.914;2023-09-07T17:12:29;99376.19;;;25.40;72.14
18678;BME280;9469;51.114;13.914;2023-09-07T17:17:37;99375.31;;;25.18;72.99
18678;BME280;9469;51.114;13.914;2023-09-07T17:22:43;99383.38;;;25.01;73.52
18678;BME280;9469;51.114;13.914;2023-09-07T17:27:49;99378.22;;;24.85;74.07
18678;BME280;9469;51.114;13.914;2023-09-07T17:32:57;99377.38;;;24.77;74.24
18678;BME280;9469;51.114;13.914;2023-09-07T17:38:02;99382.47;;;24.39;75.85
18678;BME280;9469;51.114;13.914;2023-09-07T17:43:07;99378.03;;;24.20;76.37
18678;BME280;9469;51.114;13.914;2023-09-07T17:48:15;99384.09;;;24.06;77.12
18678;BME280;9469;51.114;13.914;2023-09-07T17:53:20;99382.69;;;23.86;78.15
18678;BME280;9469;51.114;13.914;2023-09-07T17:58:26;99390.06;;;23.52;79.69
18678;BME280;9469;51.114;13.914;2023-09-07T18:03:34;99390.38;;;23.47;79.93
18678;BME280;9469;51.114;13.914;2023-09-07T18:08:39;99399.13;;;23.34;80.48
18678;BME280;9469;51.114;13.914;2023-09-07T18:13:44;99405.97;;;23.24;81.33
18678;BME280;9469;51.114;13.914;2023-09-07T18:19:00;99401.56;;;23.16;81.86
18678;BME280;9469;51.114;13.914;2023-09-07T18:24:07;99400.75;;;23.12;82.00
18678;BME280;9469;51.114;13.914;2023-09-07T18:29:12;99409.84;;;22.97;82.58
18678;BME280;9469;51.114;13.914;2023-09-07T18:34:20;99405.84;;;22.65;84.24
18678;BME280;9469;51.114;13.914;2023-09-07T18:39:25;99405.22;;;22.75;84.62
18678;BME280;9469;51.114;13.914;2023-09-07T18:44:31;99399.84;;;22.56;84.83
18678;BME280;9469;51.114;13.914;2023-09-07T18:49:39;99401.06;;;22.58;85.53
18678;BME280;9469;51.114;13.914;2023-09-07T18:54:44;99401.66;;;22.48;85.95
18678;BME280;9469;51.114;13.914;2023-09-07T18:59:50;99408.25;;;22.28;86.34
18678;BME280;9469;51.114;13.914;2023-09-07T19:04:58;99401.88;;;22.40;86.58
18678;BME280;9469;51.114;13.914;2023-09-07T19:10:04;99408.66;;;22.07;87.29
18678;BME280;9469;51.114;13.914;2023-09-07T19:15:09;99406.38;;;22.09;87.79
18678;BME280;9469;51.114;13.914;2023-09-07T19:20:18;99414.16;;;21.73;88.67
18678;BME280;9469;51.114;13.914;2023-09-07T19:25:26;99410.09;;;21.82;88.73
18678;BME280;9469;51.114;13.914;2023-09-07T19:30:35;99411.16;;;21.59;88.71
18678;BME280;9469;51.114;13.914;2023-09-07T19:35:43;99403.56;;;21.29;90.73
18678;BME280;9469;51.114;13.914;2023-09-07T19:40:49;99402.53;;;21.34;90.68
18678;BME280;9469;51.114;13.914;2023-09-07T19:45:57;99398.69;;;21.19;90.85
18678;BME280;9469;51.114;13.914;2023-09-07T19:51:10;99408.00;;;21.37;91.31
18678;BME280;9469;51.114;13.914;2023-09-07T19:56:18;99406.34;;;21.33;90.51
18678;BME280;9469;51.114;13.914;2023-09-07T20:01:28;99401.69;;;20.99;91.66
18678;BME280;9469;51.114;13.914;2023-09-07T20:06:38;99404.34;;;20.80;92.77
18678;BME280;9469;51.114;13.914;2023-09-07T20:11:46;99409.50;;;20.53;94.13
18678;BME280;9469;51.114;13.914;2023-09-07T20:16:51;99412.69;;;20.28;95.42
18678;BME280;9469;51.114;13.914;2023-09-07T20:22:00;99404.34;;;20.64;94.53
18678;BME280;9469;51.114;13.914;2023-09-07T20:27:05;99413.31;;;20.52;94.66
18678;BME280;9469;51.114;13.914;2023-09-07T20:32:12;99408.44;;;20.42;95.49
18678;BME280;9469;51.114;13.914;2023-09-07T20:37:19;99396.22;;;20.80;93.90
18678;BME280;9469;51.114;13.914;2023-09-07T20:42:25;99404.16;;;20.72;93.57
18678;BME280;9469;51.114;13.914;2023-09-07T20:47:31;99407.56;;;20.11;96.57
18678;BME280;9469;51.114;13.914;2023-09-07T20:52:39;99415.16;;;19.77;99.23
18678;BME280;9469;51.114;13.914;2023-09-07T20:57:44;99407.06;;;20.05;97.96
18678;BME280;9469;51.114;13.914;2023-09-07T21:02:50;99401.63;;;19.89;98.49
18678;BME280;9469;51.114;13.914;2023-09-07T21:07:58;99400.88;;;20.20;97.31
18678;BME280;9469;51.114;13.914;2023-09-07T21:13:05;99396.84;;;20.42;95.98
18678;BME280;9469;51.114;13.914;2023-09-07T21:18:11;99398.59;;;20.34;96.16
18678;BME280;9469;51.114;13.914;2023-09-07T21:23:19;99401.47;;;20.41;95.65
18678;BME280;9469;51.114;13.914;2023-09-07T21:28:24;99404.06;;;19.94;97.66
18678;BME280;9469;51.114;13.914;2023-09-07T21:33:31;99421.03;;;19.03;100.00
18678;BME280;9469;51.114;13.914;2023-09-07T21:38:39;99412.03;;;18.99;100.00
18678;BME280;9469;51.114;13.914;2023-09-07T21:43:44;99412.25;;;18.82;100.00
18678;BME280;9469;51.114;13.914;2023-09-07T21:48:52;99411.34;;;18.66;100.00
18678;BME280;9469;51.114;13.914;2023-09-07T21:54:04;99407.88;;;18.53;100.00
18678;BME280;9469;51.114;13.914;2023-09-07T21:59:09;99407.88;;;18.53;100.00
18678;BME280;9469;51.114;13.914;2023-09-07T22:04:14;99416.91;;;18.37;100.00
18678;BME280;9469;51.114;13.914;2023-09-07T22:09:22;99402.94;;;18.23;100.00
18678;BME280;9469;51.114;13.914;2023-09-07T22:14:27;99400.59;;;18.21;100.00
18678;BME280;9469;51.114;13.914;2023-09-07T22:19:32;99393.00;;;18.03;100.00
18678;BME280;9469;51.114;13.914;2023-09-07T22:24:41;99392.41;;;18.18;100.00
18678;BME280;9469;51.114;13.914;2023-09-07T22:29:47;99393.78;;;17.91;100.00
18678;BME280;9469;51.114;13.914;2023-09-07T22:34:55;99392.72;;;18.04;100.00
18678;BME280;9469;51.114;13.914;2023-09-07T22:40:04;99393.41;;;18.13;100.00
18678;BME280;9469;51.114;13.914;2023-09-07T22:45:18;99393.50;;;17.51;100.00
18678;BME280;9469;51.114;13.914;2023-09-07T22:50:23;99398.22;;;17.75;100.00
18678;BME280;9469;51.114;13.914;2023-09-07T22:55:42;99391.25;;;17.53;100.00
18678;BME280;9469;51.114;13.914;2023-09-07T23:00:49;99389.97;;;17.59;100.00
18678;BME280;9469;51.114;13.914;2023-09-07T23:05:56;99385.31;;;17.39;100.00
18678;BME280;9469;51.114;13.914;2023-09-07T23:11:04;99382.53;;;17.56;100.00
18678;BME280;9469;51.114;13.914;2023-09-07T23:16:10;99382.25;;;17.49;100.00
18678;BME280;9469;51.114;13.914;2023-09-07T23:21:17;99387.28;;;17.30;100.00
18678;BME280;9469;51.114;13.914;2023-09-07T23:26:24;99391.81;;;17.17;100.00
18678;BME280;9469;51.114;13.914;2023-09-07T23:31:30;99380.63;;;17.36;100.00
18678;BME280;9469;51.114;13.914;2023-09-07T23:36:36;99378.97;;;17.23;100.00
18678;BME280;9469;51.114;13.914;2023-09-07T23:41:44;99384.00;;;17.25;100.00
18678;BME280;9469;51.114;13.914;2023-09-07T23:46:49;99387.28;;;17.09;100.00
18678;BME280;9469;51.114;13.914;2023-09-07T23:51:54;99392.41;;;17.23;100.00
18678;BME280;9469;51.114;13.914;2023-09-07T23:57:02;99378.22;;;17.35;100.00
